Latest Weather Observations for Mount Isa

IDQ60801

Issued at 7:51 pm EST Tuesday 22 October 2019 (issued every 10 minutes, with the page automatically refreshed every 10 minutes)

About weather observations | Map of weather stations | Latest weather observations for QLD | Other Formats
Station Details ID: 029127 Name: MOUNT ISA AERO Lat: -20.68 Lon: 139.49 Height: 340.3 m
Data from the previous 72 hours. | See also: Recent months at Mount Isa
Date/Time
EST
Temp
°C
App
Temp
°C
Dew
Point
°C
Rel
Hum
%
Delta-T
°C
Wind Press
QNH
hPa
Press
MSL
hPa
Rain since
9am
mm
Dir  Spd
km/h
Gust
km/h
Spd
kts
Gust
kts
22/07:30pm 30.7 27.1 5.2 20 13.6 E 13 19 7 10 1014.1 1012.1 0.0
22/07:00pm 31.0 27.5 5.4 20 13.7 ENE 13 19 7 10 1013.7 1011.7 0.0
22/06:30pm 32.2 28.0 5.7 19 14.3 E 17 28 9 15 1013.4 1011.3 0.0
22/06:00pm 33.3 29.1 5.8 18 15.0 ESE 17 28 9 15 1013.0 1010.9 0.0
22/05:30pm 33.7 30.0 6.1 18 15.1 E 15 26 8 14 1012.8 1010.7 0.0
22/05:00pm 34.1 30.8 6.4 18 15.3 E 13 20 7 11 1012.6 1010.5 0.0
22/04:30pm 35.1 30.9 5.5 16 16.2 ENE 17 28 9 15 1012.6 1010.5 0.0
22/04:00pm 34.9 31.0 7.1 18 15.6 NE 17 30 9 16 1012.8 1010.7 0.0
22/03:30pm 33.6 30.2 7.6 20 14.6 NE 15 28 8 15 1013.0 1010.9 0.0
22/03:00pm 34.8 31.8 7.8 19 15.3 E 13 26 7 14 1013.2 1011.1 0.0
22/02:30pm 35.0 30.7 7.9 19 15.4 NE 20 32 11 17 1013.4 1011.3 0.0
22/02:00pm 33.0 28.3 7.8 21 14.2 NNE 22 35 12 19 1014.0 1012.0 0.0
22/01:30pm 34.9 30.0 10.0 22 14.6 ENE 26 41 14 22 1014.4 1012.4 0.0
22/01:00pm 33.8 29.2 9.8 23 14.0 NE 24 43 13 23 1014.9 1012.8 0.0
22/12:30pm 33.7 28.7 9.7 23 13.9 NE 26 33 14 18 1015.4 1013.3 0.0
22/12:00pm 33.0 27.1 10.4 25 13.2 NNE 32 43 17 23 1016.0 1013.9 0.0
22/11:30am 31.9 26.0 10.6 27 12.4 NNE 32 43 17 23 1016.3 1014.3 0.0
22/11:00am 32.5 26.9 11.6 28 12.4 NNE 32 50 17 27 1016.7 1014.7 0.0
22/10:55am 31.8 26.4 12.1 30 11.8 NE 32 50 17 27 1016.8 1014.8 0.0
22/10:30am 30.9 25.4 12.3 32 11.1 NE 33 48 18 26 1017.0 1015.0 0.0
22/10:00am 30.6 25.9 12.0 32 11.0 NE 28 37 15 20 1017.2 1015.2 0.0
22/09:30am 30.0 24.2 11.5 32 10.9 NE 33 46 18 25 1017.5 1015.5 0.0
22/09:00am 28.9 23.5 9.6 30 10.9 NE 28 39 15 21 1017.4 1015.4 0.0
22/08:30am 28.0 21.9 5.0 23 12.0 ENE 26 37 14 20 1017.2 1015.2 0.0
22/08:00am 27.3 22.0 1.7 19 12.5 E 19 28 10 15 1016.8 1014.8 0.0
22/07:30am 25.3 19.9 -4.1 14 12.8 E 15 19 8 10 1016.7 1014.7 0.0
22/07:00am 22.4 17.3 -5.5 15 11.5 E 13 17 7 9 1016.4 1014.4 0.0
22/06:30am 20.1 17.3 -7.3 15 10.7 CALM 0 0 0 0 1016.0 1013.9 0.0
22/06:00am 20.4 15.4 -8.0 14 10.9 SSE 11 15 6 8 1015.5 1013.4 0.0
22/05:30am 21.0 15.7 -7.5 14 11.1 S 13 17 7 9 1015.3 1013.2 0.0
22/05:00am 21.6 16.2 -8.0 13 11.5 S 13 15 7 8 1015.2 1013.1 0.0
22/04:30am 21.9 16.2 -7.7 13 11.6 S 15 17 8 9 1015.1 1013.0 0.0
22/04:00am 21.9 17.3 -7.7 13 11.6 SSE 9 11 5 6 1015.0 1012.9 0.0
22/03:30am 22.1 16.8 -7.6 13 11.7 S 13 13 7 7 1015.2 1013.1 0.0
22/03:00am 22.3 17.4 -7.4 13 11.8 S 11 13 6 7 1015.3 1013.2 0.0
22/02:30am 22.4 16.6 -8.4 12 12.0 S 15 17 8 9 1015.4 1013.3 0.0
22/02:00am 22.6 16.8 -8.2 12 12.1 S 15 17 8 9 1015.7 1013.6 0.0
22/01:30am 23.1 17.4 -7.8 12 12.3 S 15 15 8 8 1015.6 1013.5 0.0
22/01:00am 23.7 18.0 -7.4 12 12.5 S 15 17 8 9 1015.6 1013.5 0.0
22/12:30am 23.6 17.9 -7.4 12 12.5 S 15 17 8 9 1016.1 1014.1 0.0
22/12:00am 24.2 18.5 -7.0 12 12.7 S 15 17 8 9 1016.2 1014.2 0.0
 
Date/Time
EST
Temp
°C
App
Temp
°C
Dew
Point
°C
Rel
Hum
%
Delta-T
°C
Wind Press
QNH
hPa
Press
MSL
hPa
Rain since
9am
mm
Dir  Spd
km/h
Gust
km/h
Spd
kts
Gust
kts
21/11:30pm 25.0 19.7 -7.5 11 13.2 S 13 15 7 8 1016.5 1014.5 0.0
21/11:00pm 24.4 19.4 -7.9 11 13.0 S 11 13 6 7 1016.7 1014.7 0.0
21/10:30pm 25.0 19.7 -7.5 11 13.2 S 13 13 7 7 1016.8 1014.8 0.0
21/10:00pm 25.4 20.1 -7.2 11 13.4 S 13 13 7 7 1016.7 1014.7 0.0
21/09:30pm 25.7 20.8 -6.9 11 13.5 SSE 11 13 6 7 1016.6 1014.6 0.0
21/09:00pm 26.4 21.5 -7.6 10 14.0 S 11 13 6 7 1016.4 1014.4 0.0
21/08:30pm 26.6 21.3 -7.5 10 14.1 S 13 15 7 8 1016.2 1014.2 0.0
21/08:00pm 27.7 22.3 -8.0 9 14.8 SSE 13 17 7 9 1016.0 1013.9 0.0
21/07:30pm 29.3 23.5 -8.3 8 15.7 SSE 15 19 8 10 1015.6 1013.5 0.0
21/07:00pm 30.1 24.0 -7.7 8 16.1 SSE 17 22 9 12 1015.3 1013.2 0.0
21/06:30pm 31.4 25.0 -6.8 8 16.7 SSE 19 28 10 15 1015.0 1012.9 0.0
21/06:00pm 32.5 26.9 -6.0 8 17.2 SE 15 26 8 14 1014.7 1012.6 0.0
21/05:30pm 33.3 26.9 -7.1 7 17.8 ESE 19 28 10 15 1014.4 1012.4 0.0
21/05:00pm 33.7 27.7 -6.8 7 18.0 S 17 26 9 14 1014.1 1012.1 0.0
21/04:30pm 34.1 27.5 -6.5 7 18.2 SSE 20 30 11 16 1013.9 1011.9 0.0
21/04:00pm 34.5 28.9 -6.3 7 18.4 SSE 15 26 8 14 1013.9 1011.9 0.0
21/03:30pm 34.1 28.1 -6.5 7 18.2 SE 17 32 9 17 1014.1 1012.1 0.0
21/03:00pm 33.9 28.3 -6.7 7 18.1 SE 15 32 8 17 1014.3 1012.3 0.0
21/02:30pm 34.3 27.8 -6.4 7 18.3 SE 20 30 11 16 1014.8 1012.7 0.0
21/02:00pm 33.6 27.6 -6.9 7 18.0 ESE 17 30 9 16 1015.1 1013.0 0.0
21/01:30pm 33.3 26.9 -5.4 8 17.6 SSE 20 30 11 16 1015.7 1013.6 0.0
21/01:00pm 32.9 25.9 -7.4 7 17.6 SSE 22 32 12 17 1016.3 1014.3 0.0
21/12:30pm 32.5 26.6 -6.0 8 17.2 SE 17 28 9 15 1016.9 1014.9 0.0
21/12:00pm 31.6 25.2 -6.6 8 16.7 SE 19 28 10 15 1017.5 1015.5 0.0
21/11:30am 31.1 24.5 -7.0 8 16.5 SE 20 35 11 19 1018.2 1016.1 0.0
21/11:00am 31.0 24.2 -5.5 9 16.2 SE 22 33 12 18 1018.7 1016.6 0.0
21/10:30am 30.5 23.0 -4.5 10 15.8 SSE 26 37 14 20 1019.0 1017.0 0.0
21/10:00am 29.3 22.1 -5.4 10 15.2 SE 24 33 13 18 1019.4 1017.4 0.0
21/09:30am 28.7 21.6 -4.6 11 14.8 SE 24 33 13 18 1019.7 1017.7 0.0
21/09:00am 27.1 19.5 -5.9 11 14.1 SE 26 37 14 20 1019.6 1017.6 0.0
21/08:30am 25.4 17.4 -6.0 12 13.2 SSE 28 35 15 19 1019.7 1017.7 0.0
21/08:00am 24.6 17.6 -6.7 12 12.8 SSE 22 30 12 16 1019.6 1017.6 0.0
21/07:30am 23.1 15.8 -6.8 13 12.1 SSE 24 33 13 18 1019.4 1017.4 0.0
21/07:00am 21.8 14.8 -6.8 14 11.4 SSE 22 30 12 16 1019.1 1017.1 0.0
21/06:30am 20.5 14.4 -7.9 14 11.0 SSE 17 24 9 13 1018.9 1016.9 0.0
21/06:00am 20.2 14.4 -8.1 14 10.8 SSE 15 19 8 10 1018.7 1016.6 0.0
21/05:30am 20.5 15.5 -7.9 14 11.0 SSE 11 13 6 7 1018.5 1016.4 0.0
21/05:00am 21.5 16.5 -8.0 13 11.5 SE 11 17 6 9 1018.3 1016.2 0.0
21/04:30am 22.0 15.9 -7.6 13 11.7 SSE 17 20 9 11 1018.0 1015.9 0.0
21/04:00am 22.6 15.9 -8.2 12 12.1 SSE 20 28 11 15 1017.6 1015.6 0.0
21/03:30am 22.6 15.2 -7.2 13 11.9 SSE 24 33 13 18 1017.4 1015.4 0.0
21/03:00am 22.6 15.9 -8.2 12 12.1 SSE 20 26 11 14 1017.6 1015.6 0.0
21/02:30am 22.4 15.7 -8.4 12 12.0 S 20 26 11 14 1018.0 1015.9 0.0
21/02:00am 22.7 16.6 -8.1 12 12.1 S 17 20 9 11 1018.2 1016.1 0.0
21/01:30am 23.1 16.5 -8.9 11 12.4 S 19 22 10 12 1018.3 1016.2 0.0
21/01:00am 21.8 15.5 -9.9 11 11.9 SSE 17 20 9 11 1018.5 1016.4 0.0
21/12:30am 24.3 18.5 -9.2 10 13.1 SSE 15 20 8 11 1018.6 1016.5 0.0
21/12:00am 24.9 19.0 -10.1 9 13.5 SSE 15 22 8 12 1018.8 1016.8 0.0
 
Date/Time
EST
Temp
°C
App
Temp
°C
Dew
Point
°C
Rel
Hum
%
Delta-T
°C
Wind Press
QNH
hPa
Press
MSL
hPa
Rain since
9am
mm
Dir  Spd
km/h
Gust
km/h
Spd
kts
Gust
kts
20/11:30pm 24.9 18.6 -10.1 9 13.6 SSE 17 22 9 12 1019.1 1017.1 0.0
20/11:00pm 26.4 20.6 -9.0 9 14.2 SSE 15 22 8 12 1019.1 1017.1 0.0
20/10:30pm 27.4 20.7 -8.2 9 14.6 S 20 30 11 16 1019.0 1017.0 0.0
20/10:00pm 28.0 21.3 -7.8 9 14.9 SSE 20 28 11 15 1018.9 1016.9 0.0
20/09:30pm 28.4 21.9 -6.1 10 14.9 SSE 20 28 11 15 1018.7 1016.6 0.0
20/09:00pm 29.0 22.5 -5.7 10 15.1 SSE 20 28 11 15 1018.5 1016.4 0.0
20/08:30pm 29.6 23.4 -5.2 10 15.4 SSE 19 26 10 14 1018.2 1016.1 0.0
20/08:00pm 30.1 23.9 -4.8 10 15.6 SSE 19 24 10 13 1017.8 1015.7 0.0
20/07:30pm 30.9 22.9 -5.6 9 16.2 SSE 28 37 15 20 1017.2 1015.2 0.0
20/07:00pm 31.4 22.7 -5.2 9 16.4 SSE 32 41 17 22 1017.0 1015.0 0.0
20/06:30pm 32.0 23.3 -4.8 9 16.7 SSE 32 41 17 22 1016.5 1014.5 0.0
20/06:00pm 32.9 24.1 -4.1 9 17.1 SSE 33 46 18 25 1016.1 1014.1 0.0
20/05:30pm 33.9 24.8 -3.4 9 17.6 SSE 35 48 19 26 1015.9 1013.8 0.0
20/05:00pm 34.2 25.1 -3.2 9 17.7 S 35 50 19 27 1015.9 1013.8 0.0
20/04:30pm 35.0 26.4 -2.6 9 18.1 SSE 33 50 18 27 1015.8 1013.7 0.0
20/04:04pm 34.6 26.1 -2.9 9 17.9 SSE 32 50 17 27 1015.8 1013.7 0.0
20/04:00pm 35.0 26.4 -2.6 9 18.1 S 33 50 18 27 1015.8 1013.7 0.0
20/03:30pm 35.2 26.8 -2.4 9 18.2 S 32 54 17 29 1016.1 1014.1 0.0
20/03:24pm 35.8 26.9 -2.0 9 18.4 S 35 54 19 29 1016.2 1014.2 0.0
20/03:19pm 34.4 25.9 -3.0 9 17.8 SSE 32 50 17 27 1016.4 1014.4 0.0
20/03:15pm 35.3 27.7 -2.3 9 18.2 SSE 28 46 15 25 1016.3 1014.3 0.0
20/03:00pm 35.5 26.8 -3.8 8 18.6 SSE 33 50 18 27 1016.4 1014.4 0.0
20/02:39pm 35.6 27.1 -3.7 8 18.6 SSE 32 50 17 27 1016.6 1014.6 0.0
20/02:30pm 35.3 26.4 -2.3 9 18.2 S 35 52 19 28 1016.6 1014.6 0.0
20/02:00pm 36.1 28.0 -3.3 8 18.8 SSE 30 46 16 25 1017.0 1015.0 0.0
20/01:30pm 36.0 29.2 -1.8 9 18.5 SSE 24 43 13 23 1017.4 1015.4 0.0
20/01:17pm 34.8 27.1 -2.7 9 18.0 SSE 28 48 15 26 1017.6 1015.6 0.0
20/01:00pm 35.1 27.8 -2.5 9 18.1 SSE 26 39 14 21 1018.0 1015.9 0.0
20/12:30pm 35.0 28.1 -2.6 9 18.1 SSE 24 33 13 18 1018.5 1016.4 0.0
20/12:00pm 33.9 26.9 -3.4 9 17.5 SE 24 35 13 19 1019.1 1017.1 0.0
20/11:30am 34.3 28.3 -3.1 9 17.7 SSE 19 32 10 17 1019.6 1017.6 0.0
20/11:00am 33.4 27.1 -3.7 9 17.3 SE 20 30 11 16 1019.8 1017.8 0.0
20/10:30am 33.0 25.9 -4.0 9 17.1 SE 24 35 13 19 1020.1 1018.1 0.0
20/10:00am 32.3 26.1 -4.6 9 16.8 SE 19 30 10 16 1020.2 1018.2 0.0
20/09:30am 31.3 24.6 -3.9 10 16.1 SE 22 33 12 18 1020.5 1018.5 0.0
20/09:00am 30.0 23.2 -4.9 10 15.5 SE 22 33 12 18 1020.7 1018.7 0.0
20/08:30am 29.0 22.5 -5.7 10 15.1 SE 20 30 11 16 1020.4 1018.4 0.0
20/08:00am 28.2 21.8 -5.0 11 14.5 SE 20 28 11 15 1020.4 1018.4 0.0
20/07:30am 27.2 21.3 -5.8 11 14.1 SSE 17 22 9 12 1019.9 1017.9 0.0
20/07:00am 25.7 20.9 -5.8 12 13.3 SE 11 13 6 7 1019.8 1017.8 0.0
20/06:30am 22.7 18.3 -6.1 14 11.8 S 9 11 5 6 1019.5 1017.5 0.0
20/06:00am 22.2 17.6 -7.5 13 11.7 SE 9 11 5 6 1019.0 1017.0 0.0
20/05:30am 23.3 18.0 -7.7 12 12.4 SE 13 19 7 10 1018.7 1016.6 0.0
20/05:00am 24.6 19.4 -6.7 12 12.9 SE 13 17 7 9 1018.3 1016.2 0.0
20/04:30am 25.3 19.2 -7.2 11 13.3 SE 17 26 9 14 1018.1 1016.0 0.0
20/04:00am 26.0 19.6 -6.7 11 13.6 SE 19 28 10 15 1018.0 1015.9 0.0
20/03:30am 25.7 19.1 -6.9 11 13.5 SE 20 33 11 18 1018.0 1015.9 0.0
20/03:00am 26.3 20.3 -6.5 11 13.7 SE 17 28 9 15 1018.0 1015.9 0.0
20/02:30am 25.9 21.5 -5.6 12 13.4 SSE 9 17 5 9 1018.1 1016.0 0.0
20/02:24am 25.4 21.2 -4.0 14 12.8 SSE 9 15 5 8 1018.1 1016.0 0.0
20/02:00am 20.0 17.4 -5.0 18 10.2 CALM 0 0 0 0 1018.2 1016.1 0.0
20/01:30am 21.7 19.2 -4.4 17 10.9 CALM 0 0 0 0 1018.4 1016.3 0.0
20/01:00am 21.2 18.6 -4.8 17 10.7 CALM 0 0 0 0 1018.5 1016.4 0.0
20/12:30am 24.1 21.5 -5.0 14 12.3 CALM 0 0 0 0 1018.7 1016.6 0.0
20/12:00am 24.3 19.7 -4.0 15 12.2 SSW 11 13 6 7 1018.9 1016.9 0.0
 
Date/Time
EST
Temp
°C
App
Temp
°C
Dew
Point
°C
Rel
Hum
%
Delta-T
°C
Wind Press
QNH
hPa
Press
MSL
hPa
Rain since
9am
mm
Dir  Spd
km/h
Gust
km/h
Spd
kts
Gust
kts
19/11:30pm 24.0 19.4 -4.2 15 12.1 S 11 13 6 7 1019.0 1017.0 0.0
19/11:00pm 22.7 18.4 -4.4 16 11.4 S 9 11 5 6 1018.9 1016.9 0.0
19/10:30pm 23.7 18.7 -4.4 15 12.0 S 13 13 7 7 1018.8 1016.8 0.0
19/10:00pm 24.1 19.4 -5.0 14 12.3 S 11 11 6 6 1018.7 1016.6 0.0
19/09:30pm 26.0 21.4 -4.5 13 13.2 S 11 13 6 7 1018.4 1016.3 0.0
19/09:00pm 29.1 24.5 -4.3 11 14.9 S 11 13 6 7 1018.2 1016.1 0.0
19/08:30pm 29.6 24.6 -3.9 11 15.1 SSE 13 13 7 7 1017.9 1015.8 0.0
19/08:00pm 30.7 25.7 -4.4 10 15.8 SSE 13 17 7 9 1017.6 1015.6 0.0

Other formats

Comma delimited format used in spreadsheet applications
http://www.bom.gov.au/fwo/IDQ60801/IDQ60801.94332.axf

JavaScript Object Notation format (JSON) in row-major order
http://www.bom.gov.au/fwo/IDQ60801/IDQ60801.94332.json

Data quality

Most of these data are generated automatically and are frequently updated. Quality checks on data are not normally performed. It is possible for incorrect values to appear. Refer to information at About Latest Weather Observations and please check the disclaimer before using these data.